sensor_id;sensor_type;location;lat;lon;timestamp;temperature;humidity
26641;DHT22;14269;47.358;0.724;2023-04-21T00:00:24;10.0;57.0
26641;DHT22;14269;47.358;0.724;2023-04-21T00:02:55;10.0;57.0
26641;DHT22;14269;47.358;0.724;2023-04-21T00:05:27;10.0;57.0
26641;DHT22;14269;47.358;0.724;2023-04-21T00:07:58;10.0;57.0
26641;DHT22;14269;47.358;0.724;2023-04-21T00:10:30;10.0;57.0
26641;DHT22;14269;47.358;0.724;2023-04-21T00:13:02;10.0;57.0
26641;DHT22;14269;47.358;0.724;2023-04-21T00:15:34;10.0;57.0
26641;DHT22;14269;47.358;0.724;2023-04-21T00:18:05;10.0;57.0
26641;DHT22;14269;47.358;0.724;2023-04-21T00:20:38;10.0;57.0
26641;DHT22;14269;47.358;0.724;2023-04-21T00:23:19;10.0;58.0
26641;DHT22;14269;47.358;0.724;2023-04-21T00:25:51;10.0;58.0
26641;DHT22;14269;47.358;0.724;2023-04-21T00:28:32;10.0;57.0
26641;DHT22;14269;47.358;0.724;2023-04-21T00:31:03;10.0;57.0
26641;DHT22;14269;47.358;0.724;2023-04-21T00:33:35;10.0;57.0
26641;DHT22;14269;47.358;0.724;2023-04-21T00:36:07;10.0;57.0
26641;DHT22;14269;47.358;0.724;2023-04-21T00:38:38;10.0;57.0
26641;DHT22;14269;47.358;0.724;2023-04-21T00:41:10;10.0;57.0
26641;DHT22;14269;47.358;0.724;2023-04-21T00:43:59;10.0;57.0
26641;DHT22;14269;47.358;0.724;2023-04-21T00:46:34;10.0;57.0
26641;DHT22;14269;47.358;0.724;2023-04-21T00:49:06;10.0;57.0
26641;DHT22;14269;47.358;0.724;2023-04-21T00:51:47;10.0;57.0
26641;DHT22;14269;47.358;0.724;2023-04-21T00:54:19;10.0;57.0
26641;DHT22;14269;47.358;0.724;2023-04-21T00:56:50;10.0;58.0
26641;DHT22;14269;47.358;0.724;2023-04-21T00:59:22;10.0;58.0
26641;DHT22;14269;47.358;0.724;2023-04-21T01:01:54;10.0;58.0
26641;DHT22;14269;47.358;0.724;2023-04-21T01:04:25;9.0;58.0
26641;DHT22;14269;47.358;0.724;2023-04-21T01:06:57;9.0;59.0
26641;DHT22;14269;47.358;0.724;2023-04-21T01:09:28;9.0;59.0
26641;DHT22;14269;47.358;0.724;2023-04-21T01:12:02;9.0;59.0
26641;DHT22;14269;47.358;0.724;2023-04-21T01:14:42;9.0;60.0
26641;DHT22;14269;47.358;0.724;2023-04-21T01:17:14;9.0;60.0
26641;DHT22;14269;47.358;0.724;2023-04-21T01:19:56;9.0;59.0
26641;DHT22;14269;47.358;0.724;2023-04-21T01:22:38;9.0;59.0
26641;DHT22;14269;47.358;0.724;2023-04-21T01:25:22;9.0;60.0
26641;DHT22;14269;47.358;0.724;2023-04-21T01:28:01;9.0;59.0
26641;DHT22;14269;47.358;0.724;2023-04-21T01:30:32;9.0;59.0
26641;DHT22;14269;47.358;0.724;2023-04-21T01:33:04;9.0;59.0
26641;DHT22;14269;47.358;0.724;2023-04-21T01:35:35;9.0;59.0
26641;DHT22;14269;47.358;0.724;2023-04-21T01:38:07;9.0;60.0
26641;DHT22;14269;47.358;0.724;2023-04-21T01:40:40;9.0;59.0
26641;DHT22;14269;47.358;0.724;2023-04-21T01:43:23;9.0;59.0
26641;DHT22;14269;47.358;0.724;2023-04-21T01:46:02;9.0;59.0
26641;DHT22;14269;47.358;0.724;2023-04-21T01:48:35;9.0;60.0
26641;DHT22;14269;47.358;0.724;2023-04-21T01:51:16;9.0;60.0
26641;DHT22;14269;47.358;0.724;2023-04-21T01:53:47;9.0;60.0
26641;DHT22;14269;47.358;0.724;2023-04-21T01:56:19;9.0;60.0
26641;DHT22;14269;47.358;0.724;2023-04-21T01:58:52;9.0;60.0
26641;DHT22;14269;47.358;0.724;2023-04-21T02:01:32;8.0;61.0
26641;DHT22;14269;47.358;0.724;2023-04-21T02:04:14;8.0;61.0
26641;DHT22;14269;47.358;0.724;2023-04-21T02:06:46;9.0;61.0
26641;DHT22;14269;47.358;0.724;2023-04-21T02:09:17;9.0;60.0
26641;DHT22;14269;47.358;0.724;2023-04-21T02:11:49;9.0;61.0
26641;DHT22;14269;47.358;0.724;2023-04-21T02:14:21;9.0;61.0
26641;DHT22;14269;47.358;0.724;2023-04-21T02:16:52;9.0;61.0
26641;DHT22;14269;47.358;0.724;2023-04-21T02:19:34;9.0;61.0
26641;DHT22;14269;47.358;0.724;2023-04-21T02:22:07;8.0;61.0
26641;DHT22;14269;47.358;0.724;2023-04-21T02:24:48;8.0;62.0
26641;DHT22;14269;47.358;0.724;2023-04-21T02:27:19;8.0;62.0
26641;DHT22;14269;47.358;0.724;2023-04-21T02:29:51;8.0;63.0
26641;DHT22;14269;47.358;0.724;2023-04-21T02:32:23;8.0;63.0
26641;DHT22;14269;47.358;0.724;2023-04-21T02:34:54;8.0;63.0
26641;DHT22;14269;47.358;0.724;2023-04-21T02:37:26;8.0;63.0
26641;DHT22;14269;47.358;0.724;2023-04-21T02:39:57;8.0;63.0
26641;DHT22;14269;47.358;0.724;2023-04-21T02:42:29;8.0;63.0
26641;DHT22;14269;47.358;0.724;2023-04-21T02:45:11;8.0;63.0
26641;DHT22;14269;47.358;0.724;2023-04-21T02:47:42;8.0;63.0
26641;DHT22;14269;47.358;0.724;2023-04-21T02:50:14;8.0;64.0
26641;DHT22;14269;47.358;0.724;2023-04-21T02:52:46;8.0;65.0
26641;DHT22;14269;47.358;0.724;2023-04-21T02:55:17;8.0;65.0
26641;DHT22;14269;47.358;0.724;2023-04-21T02:57:49;8.0;64.0
26641;DHT22;14269;47.358;0.724;2023-04-21T03:00:21;8.0;65.0
26641;DHT22;14269;47.358;0.724;2023-04-21T03:02:52;8.0;64.0
26641;DHT22;14269;47.358;0.724;2023-04-21T03:05:24;8.0;64.0
26641;DHT22;14269;47.358;0.724;2023-04-21T03:07:56;8.0;63.0
26641;DHT22;14269;47.358;0.724;2023-04-21T03:10:27;8.0;63.0
26641;DHT22;14269;47.358;0.724;2023-04-21T03:12:59;8.0;63.0
26641;DHT22;14269;47.358;0.724;2023-04-21T03:15:31;8.0;63.0
26641;DHT22;14269;47.358;0.724;2023-04-21T03:18:02;8.0;63.0
26641;DHT22;14269;47.358;0.724;2023-04-21T03:20:34;7.0;64.0
26641;DHT22;14269;47.358;0.724;2023-04-21T03:23:06;7.0;64.0
26641;DHT22;14269;47.358;0.724;2023-04-21T03:25:37;7.0;65.0
26641;DHT22;14269;47.358;0.724;2023-04-21T03:28:09;7.0;65.0
26641;DHT22;14269;47.358;0.724;2023-04-21T03:30:40;7.0;64.0
26641;DHT22;14269;47.358;0.724;2023-04-21T03:33:12;7.0;64.0
26641;DHT22;14269;47.358;0.724;2023-04-21T03:35:44;7.0;64.0
26641;DHT22;14269;47.358;0.724;2023-04-21T03:38:15;7.0;64.0
26641;DHT22;14269;47.358;0.724;2023-04-21T03:40:47;7.0;64.0
26641;DHT22;14269;47.358;0.724;2023-04-21T03:43:19;8.0;64.0
26641;DHT22;14269;47.358;0.724;2023-04-21T03:45:50;7.0;64.0
26641;DHT22;14269;47.358;0.724;2023-04-21T03:48:22;7.0;64.0
26641;DHT22;14269;47.358;0.724;2023-04-21T03:50:54;7.0;64.0
26641;DHT22;14269;47.358;0.724;2023-04-21T03:53:25;7.0;64.0
26641;DHT22;14269;47.358;0.724;2023-04-21T03:55:57;7.0;64.0
26641;DHT22;14269;47.358;0.724;2023-04-21T03:58:29;7.0;64.0
26641;DHT22;14269;47.358;0.724;2023-04-21T04:01:00;7.0;64.0
26641;DHT22;14269;47.358;0.724;2023-04-21T04:03:32;7.0;64.0
26641;DHT22;14269;47.358;0.724;2023-04-21T04:06:04;7.0;64.0
26641;DHT22;14269;47.358;0.724;2023-04-21T04:08:35;7.0;64.0
26641;DHT22;14269;47.358;0.724;2023-04-21T04:11:07;7.0;64.0
26641;DHT22;14269;47.358;0.724;2023-04-21T04:13:38;7.0;64.0
26641;DHT22;14269;47.358;0.724;2023-04-21T04:16:10;7.0;64.0
26641;DHT22;14269;47.358;0.724;2023-04-21T04:18:42;7.0;64.0
26641;DHT22;14269;47.358;0.724;2023-04-21T04:21:13;7.0;64.0
26641;DHT22;14269;47.358;0.724;2023-04-21T04:23:45;7.0;64.0
26641;DHT22;14269;47.358;0.724;2023-04-21T04:26:17;7.0;65.0
26641;DHT22;14269;47.358;0.724;2023-04-21T04:28:49;7.0;65.0
26641;DHT22;14269;47.358;0.724;2023-04-21T04:31:21;7.0;65.0
26641;DHT22;14269;47.358;0.724;2023-04-21T04:34:02;7.0;64.0
26641;DHT22;14269;47.358;0.724;2023-04-21T04:36:33;7.0;65.0
26641;DHT22;14269;47.358;0.724;2023-04-21T04:39:05;7.0;65.0
26641;DHT22;14269;47.358;0.724;2023-04-21T04:41:37;7.0;64.0
26641;DHT22;14269;47.358;0.724;2023-04-21T04:44:10;7.0;65.0
26641;DHT22;14269;47.358;0.724;2023-04-21T04:46:51;7.0;65.0
26641;DHT22;14269;47.358;0.724;2023-04-21T04:49:32;7.0;66.0
26641;DHT22;14269;47.358;0.724;2023-04-21T04:52:03;7.0;66.0
26641;DHT22;14269;47.358;0.724;2023-04-21T04:54:35;7.0;66.0
26641;DHT22;14269;47.358;0.724;2023-04-21T04:57:07;7.0;66.0
26641;DHT22;14269;47.358;0.724;2023-04-21T04:59:38;7.0;66.0
26641;DHT22;14269;47.358;0.724;2023-04-21T05:02:10;7.0;66.0
26641;DHT22;14269;47.358;0.724;2023-04-21T05:04:42;7.0;66.0
26641;DHT22;14269;47.358;0.724;2023-04-21T05:07:13;7.0;66.0
26641;DHT22;14269;47.358;0.724;2023-04-21T05:09:45;7.0;66.0
26641;DHT22;14269;47.358;0.724;2023-04-21T05:12:17;7.0;65.0
26641;DHT22;14269;47.358;0.724;2023-04-21T05:14:48;7.0;65.0
26641;DHT22;14269;47.358;0.724;2023-04-21T05:17:20;7.0;66.0
26641;DHT22;14269;47.358;0.724;2023-04-21T05:19:52;7.0;66.0
26641;DHT22;14269;47.358;0.724;2023-04-21T05:22:23;7.0;66.0
26641;DHT22;14269;47.358;0.724;2023-04-21T05:24:55;7.0;66.0
26641;DHT22;14269;47.358;0.724;2023-04-21T05:27:26;7.0;66.0
26641;DHT22;14269;47.358;0.724;2023-04-21T05:29:58;7.0;66.0
26641;DHT22;14269;47.358;0.724;2023-04-21T05:32:30;7.0;67.0
26641;DHT22;14269;47.358;0.724;2023-04-21T05:35:02;7.0;66.0
26641;DHT22;14269;47.358;0.724;2023-04-21T05:37:33;7.0;66.0
26641;DHT22;14269;47.358;0.724;2023-04-21T05:40:06;7.0;66.0
26641;DHT22;14269;47.358;0.724;2023-04-21T05:42:46;7.0;66.0
26641;DHT22;14269;47.358;0.724;2023-04-21T05:45:18;7.0;65.0
26641;DHT22;14269;47.358;0.724;2023-04-21T05:47:50;7.0;65.0
26641;DHT22;14269;47.358;0.724;2023-04-21T05:50:22;8.0;64.0
26641;DHT22;14269;47.358;0.724;2023-04-21T05:53:03;8.0;64.0
26641;DHT22;14269;47.358;0.724;2023-04-21T05:55:35;7.0;64.0
26641;DHT22;14269;47.358;0.724;2023-04-21T05:58:06;8.0;64.0
26641;DHT22;14269;47.358;0.724;2023-04-21T06:00:38;7.0;65.0
26641;DHT22;14269;47.358;0.724;2023-04-21T06:03:10;8.0;65.0
26641;DHT22;14269;47.358;0.724;2023-04-21T06:05:41;8.0;64.0
26641;DHT22;14269;47.358;0.724;2023-04-21T06:08:13;8.0;64.0
26641;DHT22;14269;47.358;0.724;2023-04-21T06:10:45;8.0;64.0
26641;DHT22;14269;47.358;0.724;2023-04-21T06:13:16;8.0;64.0
26641;DHT22;14269;47.358;0.724;2023-04-21T06:15:48;8.0;64.0
26641;DHT22;14269;47.358;0.724;2023-04-21T06:18:20;8.0;63.0
26641;DHT22;14269;47.358;0.724;2023-04-21T06:20:52;8.0;63.0
26641;DHT22;14269;47.358;0.724;2023-04-21T06:23:33;8.0;62.0
26641;DHT22;14269;47.358;0.724;2023-04-21T06:26:06;8.0;63.0
26641;DHT22;14269;47.358;0.724;2023-04-21T06:28:46;8.0;63.0
26641;DHT22;14269;47.358;0.724;2023-04-21T06:31:18;8.0;63.0
26641;DHT22;14269;47.358;0.724;2023-04-21T06:33:50;9.0;62.0
26641;DHT22;14269;47.358;0.724;2023-04-21T06:36:22;9.0;61.0
26641;DHT22;14269;47.358;0.724;2023-04-21T06:38:53;9.0;62.0
26641;DHT22;14269;47.358;0.724;2023-04-21T06:41:25;9.0;60.0
26641;DHT22;14269;47.358;0.724;2023-04-21T06:43:56;9.0;61.0
26641;DHT22;14269;47.358;0.724;2023-04-21T06:46:28;10.0;60.0
26641;DHT22;14269;47.358;0.724;2023-04-21T06:49:00;10.0;60.0
26641;DHT22;14269;47.358;0.724;2023-04-21T06:51:31;10.0;60.0
26641;DHT22;14269;47.358;0.724;2023-04-21T06:54:04;10.0;60.0
26641;DHT22;14269;47.358;0.724;2023-04-21T06:56:45;10.0;59.0
26641;DHT22;14269;47.358;0.724;2023-04-21T06:59:16;11.0;56.0
26641;DHT22;14269;47.358;0.724;2023-04-21T07:01:51;11.0;56.0
26641;DHT22;14269;47.358;0.724;2023-04-21T07:04:31;11.0;55.0
26641;DHT22;14269;47.358;0.724;2023-04-21T07:07:01;11.0;56.0
26641;DHT22;14269;47.358;0.724;2023-04-21T07:09:33;11.0;56.0
26641;DHT22;14269;47.358;0.724;2023-04-21T07:12:05;11.0;56.0
26641;DHT22;14269;47.358;0.724;2023-04-21T07:14:36;11.0;56.0
26641;DHT22;14269;47.358;0.724;2023-04-21T07:17:08;11.0;56.0
26641;DHT22;14269;47.358;0.724;2023-04-21T07:19:40;11.0;55.0
26641;DHT22;14269;47.358;0.724;2023-04-21T07:22:11;11.0;55.0
26641;DHT22;14269;47.358;0.724;2023-04-21T07:24:43;11.0;55.0
26641;DHT22;14269;47.358;0.724;2023-04-21T07:27:15;11.0;55.0
26641;DHT22;14269;47.358;0.724;2023-04-21T07:29:56;11.0;57.0
26641;DHT22;14269;47.358;0.724;2023-04-21T07:32:28;11.0;58.0
26641;DHT22;14269;47.358;0.724;2023-04-21T07:35:00;11.0;56.0
26641;DHT22;14269;47.358;0.724;2023-04-21T07:37:41;12.0;55.0
26641;DHT22;14269;47.358;0.724;2023-04-21T07:40:13;12.0;55.0
26641;DHT22;14269;47.358;0.724;2023-04-21T07:42:45;12.0;55.0
26641;DHT22;14269;47.358;0.724;2023-04-21T07:45:16;12.0;54.0
26641;DHT22;14269;47.358;0.724;2023-04-21T07:47:48;12.0;54.0
26641;DHT22;14269;47.358;0.724;2023-04-21T07:50:20;13.0;53.0
26641;DHT22;14269;47.358;0.724;2023-04-21T07:52:51;13.0;52.0
26641;DHT22;14269;47.358;0.724;2023-04-21T07:55:23;12.0;54.0
26641;DHT22;14269;47.358;0.724;2023-04-21T07:57:55;12.0;55.0
26641;DHT22;14269;47.358;0.724;2023-04-21T08:00:26;13.0;54.0
26641;DHT22;14269;47.358;0.724;2023-04-21T08:02:58;13.0;52.0
26641;DHT22;14269;47.358;0.724;2023-04-21T08:05:31;13.0;51.0
26641;DHT22;14269;47.358;0.724;2023-04-21T08:08:11;13.0;52.0
26641;DHT22;14269;47.358;0.724;2023-04-21T08:10:43;14.0;51.0
26641;DHT22;14269;47.358;0.724;2023-04-21T08:13:14;14.0;49.0
26641;DHT22;14269;47.358;0.724;2023-04-21T08:15:46;14.0;49.0
26641;DHT22;14269;47.358;0.724;2023-04-21T08:18:18;14.0;49.0
26641;DHT22;14269;47.358;0.724;2023-04-21T08:20:51;14.0;50.0
26641;DHT22;14269;47.358;0.724;2023-04-21T08:23:31;14.0;48.0
26641;DHT22;14269;47.358;0.724;2023-04-21T08:26:03;15.0;47.0
26641;DHT22;14269;47.358;0.724;2023-04-21T08:28:34;14.0;46.0
26641;DHT22;14269;47.358;0.724;2023-04-21T08:31:06;14.0;46.0
26641;DHT22;14269;47.358;0.724;2023-04-21T08:33:38;14.0;46.0
26641;DHT22;14269;47.358;0.724;2023-04-21T08:36:10;15.0;46.0
26641;DHT22;14269;47.358;0.724;2023-04-21T08:38:42;15.0;48.0
26641;DHT22;14269;47.358;0.724;2023-04-21T08:41:23;15.0;49.0
26641;DHT22;14269;47.358;0.724;2023-04-21T08:43:54;15.0;48.0
26641;DHT22;14269;47.358;0.724;2023-04-21T08:46:27;15.0;50.0
26641;DHT22;14269;47.358;0.724;2023-04-21T08:48:58;14.0;48.0
26641;DHT22;14269;47.358;0.724;2023-04-21T08:51:40;15.0;49.0
26641;DHT22;14269;47.358;0.724;2023-04-21T08:54:11;14.0;49.0
26641;DHT22;14269;47.358;0.724;2023-04-21T08:56:43;14.0;49.0
26641;DHT22;14269;47.358;0.724;2023-04-21T08:59:14;14.0;49.0
26641;DHT22;14269;47.358;0.724;2023-04-21T09:02:18;14.0;49.0
26641;DHT22;14269;47.358;0.724;2023-04-21T09:04:58;14.0;51.0
26641;DHT22;14269;47.358;0.724;2023-04-21T09:07:31;15.0;47.0
26641;DHT22;14269;47.358;0.724;2023-04-21T09:10:12;15.0;48.0
26641;DHT22;14269;47.358;0.724;2023-04-21T09:12:49;15.0;47.0
26641;DHT22;14269;47.358;0.724;2023-04-21T09:15:25;15.0;44.0
26641;DHT22;14269;47.358;0.724;2023-04-21T09:17:57;15.0;47.0
26641;DHT22;14269;47.358;0.724;2023-04-21T09:20:28;15.0;45.0
26641;DHT22;14269;47.358;0.724;2023-04-21T09:23:03;16.0;44.0
26641;DHT22;14269;47.358;0.724;2023-04-21T09:25:43;16.0;43.0
26641;DHT22;14269;47.358;0.724;2023-04-21T09:28:30;16.0;46.0
26641;DHT22;14269;47.358;0.724;2023-04-21T09:31:12;16.0;46.0
26641;DHT22;14269;47.358;0.724;2023-04-21T09:33:48;16.0;46.0
26641;DHT22;14269;47.358;0.724;2023-04-21T09:36:30;16.0;47.0
26641;DHT22;14269;47.358;0.724;2023-04-21T09:39:11;16.0;45.0
26641;DHT22;14269;47.358;0.724;2023-04-21T09:41:43;16.0;46.0
26641;DHT22;14269;47.358;0.724;2023-04-21T09:44:24;16.0;45.0
26641;DHT22;14269;47.358;0.724;2023-04-21T09:46:59;16.0;45.0
26641;DHT22;14269;47.358;0.724;2023-04-21T09:49:43;16.0;47.0
26641;DHT22;14269;47.358;0.724;2023-04-21T09:52:19;17.0;45.0
26641;DHT22;14269;47.358;0.724;2023-04-21T09:54:56;17.0;43.0
26641;DHT22;14269;47.358;0.724;2023-04-21T09:57:34;16.0;44.0
26641;DHT22;14269;47.358;0.724;2023-04-21T10:00:17;17.0;41.0
26641;DHT22;14269;47.358;0.724;2023-04-21T10:02:57;17.0;45.0
26641;DHT22;14269;47.358;0.724;2023-04-21T10:05:38;16.0;43.0
26641;DHT22;14269;47.358;0.724;2023-04-21T10:08:10;16.0;43.0
26641;DHT22;14269;47.358;0.724;2023-04-21T10:10:41;17.0;45.0
26641;DHT22;14269;47.358;0.724;2023-04-21T10:13:15;17.0;40.0
26641;DHT22;14269;47.358;0.724;2023-04-21T10:16:00;17.0;38.0
26641;DHT22;14269;47.358;0.724;2023-04-21T10:18:38;18.0;38.0
26641;DHT22;14269;47.358;0.724;2023-04-21T10:21:20;18.0;39.0
26641;DHT22;14269;47.358;0.724;2023-04-21T10:24:00;18.0;38.0
26641;DHT22;14269;47.358;0.724;2023-04-21T10:26:33;17.0;41.0
26641;DHT22;14269;47.358;0.724;2023-04-21T10:29:15;17.0;39.0
26641;DHT22;14269;47.358;0.724;2023-04-21T10:31:55;17.0;43.0
26641;DHT22;14269;47.358;0.724;2023-04-21T10:34:29;17.0;42.0
26641;DHT22;14269;47.358;0.724;2023-04-21T10:37:12;17.0;39.0
26641;DHT22;14269;47.358;0.724;2023-04-21T10:39:52;18.0;40.0
26641;DHT22;14269;47.358;0.724;2023-04-21T10:42:34;18.0;39.0
26641;DHT22;14269;47.358;0.724;2023-04-21T10:45:15;18.0;39.0
26641;DHT22;14269;47.358;0.724;2023-04-21T10:47:58;17.0;41.0
26641;DHT22;14269;47.358;0.724;2023-04-21T10:50:37;17.0;39.0
26641;DHT22;14269;47.358;0.724;2023-04-21T10:53:10;17.0;39.0
26641;DHT22;14269;47.358;0.724;2023-04-21T10:55:51;18.0;41.0
26641;DHT22;14269;47.358;0.724;2023-04-21T10:58:32;18.0;37.0
26641;DHT22;14269;47.358;0.724;2023-04-21T11:01:14;19.0;36.0
26641;DHT22;14269;47.358;0.724;2023-04-21T11:03:46;19.0;36.0
26641;DHT22;14269;47.358;0.724;2023-04-21T11:06:17;19.0;34.0
26641;DHT22;14269;47.358;0.724;2023-04-21T11:08:57;19.0;37.0
26641;DHT22;14269;47.358;0.724;2023-04-21T11:11:31;19.0;35.0
26641;DHT22;14269;47.358;0.724;2023-04-21T11:14:02;19.0;35.0
26641;DHT22;14269;47.358;0.724;2023-04-21T11:16:35;19.0;37.0
26641;DHT22;14269;47.358;0.724;2023-04-21T11:19:16;19.0;37.0
26641;DHT22;14269;47.358;0.724;2023-04-21T11:21:47;19.0;37.0
26641;DHT22;14269;47.358;0.724;2023-04-21T11:24:19;20.0;34.0
26641;DHT22;14269;47.358;0.724;2023-04-21T11:26:51;20.0;37.0
26641;DHT22;14269;47.358;0.724;2023-04-21T11:29:22;20.0;34.0
26641;DHT22;14269;47.358;0.724;2023-04-21T11:31:55;20.0;34.0
26641;DHT22;14269;47.358;0.724;2023-04-21T11:34:26;20.0;35.0
26641;DHT22;14269;47.358;0.724;2023-04-21T11:36:57;20.0;35.0
26641;DHT22;14269;47.358;0.724;2023-04-21T11:39:29;19.0;37.0
26641;DHT22;14269;47.358;0.724;2023-04-21T11:42:01;19.0;36.0
26641;DHT22;14269;47.358;0.724;2023-04-21T11:44:35;19.0;35.0
26641;DHT22;14269;47.358;0.724;2023-04-21T11:47:15;19.0;36.0
26641;DHT22;14269;47.358;0.724;2023-04-21T11:49:57;20.0;32.0
26641;DHT22;14269;47.358;0.724;2023-04-21T11:52:38;20.0;31.0
26641;DHT22;14269;47.358;0.724;2023-04-21T11:55:19;19.0;32.0
26641;DHT22;14269;47.358;0.724;2023-04-21T11:57:51;20.0;33.0
26641;DHT22;14269;47.358;0.724;2023-04-21T12:00:23;20.0;32.0
26641;DHT22;14269;47.358;0.724;2023-04-21T12:02:55;20.0;31.0
26641;DHT22;14269;47.358;0.724;2023-04-21T12:05:34;20.0;30.0
26641;DHT22;14269;47.358;0.724;2023-04-21T12:08:28;20.0;30.0
26641;DHT22;14269;47.358;0.724;2023-04-21T12:11:01;20.0;28.0
26641;DHT22;14269;47.358;0.724;2023-04-21T12:13:41;20.0;30.0
26641;DHT22;14269;47.358;0.724;2023-04-21T12:16:13;20.0;31.0
26641;DHT22;14269;47.358;0.724;2023-04-21T12:18:47;20.0;32.0
26641;DHT22;14269;47.358;0.724;2023-04-21T12:21:27;21.0;30.0
26641;DHT22;14269;47.358;0.724;2023-04-21T12:23:58;20.0;30.0
26641;DHT22;14269;47.358;0.724;2023-04-21T12:26:30;20.0;29.0
26641;DHT22;14269;47.358;0.724;2023-04-21T12:29:02;20.0;30.0
26641;DHT22;14269;47.358;0.724;2023-04-21T12:31:33;20.0;33.0
26641;DHT22;14269;47.358;0.724;2023-04-21T12:34:04;20.0;33.0
26641;DHT22;14269;47.358;0.724;2023-04-21T12:36:37;20.0;33.0
26641;DHT22;14269;47.358;0.724;2023-04-21T12:39:18;19.0;34.0
26641;DHT22;14269;47.358;0.724;2023-04-21T12:41:50;20.0;32.0
26641;DHT22;14269;47.358;0.724;2023-04-21T12:44:21;19.0;32.0
26641;DHT22;14269;47.358;0.724;2023-04-21T12:46:53;20.0;32.0
26641;DHT22;14269;47.358;0.724;2023-04-21T12:49:24;20.0;33.0
26641;DHT22;14269;47.358;0.724;2023-04-21T12:51:56;20.0;31.0
26641;DHT22;14269;47.358;0.724;2023-04-21T12:54:28;20.0;32.0
26641;DHT22;14269;47.358;0.724;2023-04-21T12:56:59;20.0;35.0
26641;DHT22;14269;47.358;0.724;2023-04-21T12:59:31;19.0;33.0
26641;DHT22;14269;47.358;0.724;2023-04-21T13:02:03;19.0;33.0
26641;DHT22;14269;47.358;0.724;2023-04-21T13:04:35;19.0;34.0
26641;DHT22;14269;47.358;0.724;2023-04-21T13:07:06;19.0;35.0
26641;DHT22;14269;47.358;0.724;2023-04-21T13:09:38;19.0;34.0
26641;DHT22;14269;47.358;0.724;2023-04-21T13:12:09;20.0;34.0
26641;DHT22;14269;47.358;0.724;2023-04-21T13:14:41;20.0;35.0
26641;DHT22;14269;47.358;0.724;2023-04-21T13:17:14;20.0;34.0
26641;DHT22;14269;47.358;0.724;2023-04-21T13:19:54;19.0;32.0
26641;DHT22;14269;47.358;0.724;2023-04-21T13:22:26;19.0;32.0
26641;DHT22;14269;47.358;0.724;2023-04-21T13:24:57;19.0;33.0
26641;DHT22;14269;47.358;0.724;2023-04-21T13:27:29;19.0;36.0
26641;DHT22;14269;47.358;0.724;2023-04-21T13:30:01;19.0;36.0
26641;DHT22;14269;47.358;0.724;2023-04-21T13:32:32;19.0;37.0
26641;DHT22;14269;47.358;0.724;2023-04-21T13:35:07;19.0;36.0
26641;DHT22;14269;47.358;0.724;2023-04-21T13:37:48;19.0;32.0
26641;DHT22;14269;47.358;0.724;2023-04-21T13:40:28;20.0;32.0
26641;DHT22;14269;47.358;0.724;2023-04-21T13:42:59;20.0;36.0
26641;DHT22;14269;47.358;0.724;2023-04-21T13:45:31;20.0;35.0
26641;DHT22;14269;47.358;0.724;2023-04-21T13:48:03;20.0;35.0
26641;DHT22;14269;47.358;0.724;2023-04-21T13:50:34;20.0;34.0
26641;DHT22;14269;47.358;0.724;2023-04-21T13:53:06;20.0;32.0
26641;DHT22;14269;47.358;0.724;2023-04-21T13:55:37;20.0;32.0
26641;DHT22;14269;47.358;0.724;2023-04-21T13:58:09;20.0;32.0
26641;DHT22;14269;47.358;0.724;2023-04-21T14:00:41;20.0;31.0
26641;DHT22;14269;47.358;0.724;2023-04-21T14:03:12;20.0;31.0
26641;DHT22;14269;47.358;0.724;2023-04-21T14:05:44;20.0;33.0
26641;DHT22;14269;47.358;0.724;2023-04-21T14:08:16;20.0;35.0
26641;DHT22;14269;47.358;0.724;2023-04-21T14:10:47;20.0;33.0
26641;DHT22;14269;47.358;0.724;2023-04-21T14:13:19;20.0;35.0
26641;DHT22;14269;47.358;0.724;2023-04-21T14:15:51;20.0;34.0
26641;DHT22;14269;47.358;0.724;2023-04-21T14:18:22;20.0;31.0
26641;DHT22;14269;47.358;0.724;2023-04-21T14:20:54;20.0;31.0
26641;DHT22;14269;47.358;0.724;2023-04-21T14:23:26;20.0;30.0
26641;DHT22;14269;47.358;0.724;2023-04-21T14:25:57;20.0;30.0
26641;DHT22;14269;47.358;0.724;2023-04-21T14:28:30;20.0;31.0
26641;DHT22;14269;47.358;0.724;2023-04-21T14:31:11;20.0;31.0
26641;DHT22;14269;47.358;0.724;2023-04-21T14:33:42;20.0;31.0
26641;DHT22;14269;47.358;0.724;2023-04-21T14:36:14;20.0;35.0
26641;DHT22;14269;47.358;0.724;2023-04-21T14:38:46;20.0;31.0
26641;DHT22;14269;47.358;0.724;2023-04-21T14:41:17;20.0;33.0
26641;DHT22;14269;47.358;0.724;2023-04-21T14:43:52;20.0;34.0
26641;DHT22;14269;47.358;0.724;2023-04-21T14:46:31;20.0;32.0
26641;DHT22;14269;47.358;0.724;2023-04-21T14:49:03;20.0;32.0
26641;DHT22;14269;47.358;0.724;2023-04-21T14:51:34;20.0;31.0
26641;DHT22;14269;47.358;0.724;2023-04-21T14:54:16;20.0;33.0
26641;DHT22;14269;47.358;0.724;2023-04-21T14:56:47;20.0;32.0
26641;DHT22;14269;47.358;0.724;2023-04-21T14:59:19;20.0;35.0
26641;DHT22;14269;47.358;0.724;2023-04-21T15:01:51;20.0;31.0
26641;DHT22;14269;47.358;0.724;2023-04-21T15:04:23;19.0;33.0
26641;DHT22;14269;47.358;0.724;2023-04-21T15:06:54;19.0;33.0
26641;DHT22;14269;47.358;0.724;2023-04-21T15:09:26;19.0;34.0
26641;DHT22;14269;47.358;0.724;2023-04-21T15:11:58;19.0;34.0
26641;DHT22;14269;47.358;0.724;2023-04-21T15:14:29;19.0;37.0
26641;DHT22;14269;47.358;0.724;2023-04-21T15:17:00;19.0;35.0
26641;DHT22;14269;47.358;0.724;2023-04-21T15:19:32;19.0;36.0
26641;DHT22;14269;47.358;0.724;2023-04-21T15:22:04;19.0;33.0
26641;DHT22;14269;47.358;0.724;2023-04-21T15:24:35;19.0;36.0
26641;DHT22;14269;47.358;0.724;2023-04-21T15:27:07;19.0;36.0
26641;DHT22;14269;47.358;0.724;2023-04-21T15:29:39;18.0;37.0
26641;DHT22;14269;47.358;0.724;2023-04-21T15:32:10;18.0;35.0
26641;DHT22;14269;47.358;0.724;2023-04-21T15:34:42;18.0;36.0
26641;DHT22;14269;47.358;0.724;2023-04-21T15:37:16;18.0;35.0
26641;DHT22;14269;47.358;0.724;2023-04-21T15:39:56;18.0;37.0
26641;DHT22;14269;47.358;0.724;2023-04-21T15:42:27;18.0;37.0
26641;DHT22;14269;47.358;0.724;2023-04-21T15:45:01;18.0;37.0
26641;DHT22;14269;47.358;0.724;2023-04-21T15:47:41;18.0;35.0
26641;DHT22;14269;47.358;0.724;2023-04-21T15:50:12;18.0;36.0
26641;DHT22;14269;47.358;0.724;2023-04-21T15:52:44;18.0;36.0
26641;DHT22;14269;47.358;0.724;2023-04-21T15:55:15;18.0;35.0
26641;DHT22;14269;47.358;0.724;2023-04-21T15:57:47;18.0;35.0
26641;DHT22;14269;47.358;0.724;2023-04-21T16:00:19;18.0;38.0
26641;DHT22;14269;47.358;0.724;2023-04-21T16:02:50;18.0;38.0
26641;DHT22;14269;47.358;0.724;2023-04-21T16:05:22;18.0;35.0
26641;DHT22;14269;47.358;0.724;2023-04-21T16:07:54;18.0;35.0
26641;DHT22;14269;47.358;0.724;2023-04-21T16:10:25;18.0;36.0
26641;DHT22;14269;47.358;0.724;2023-04-21T16:12:57;18.0;34.0
26641;DHT22;14269;47.358;0.724;2023-04-21T16:15:29;18.0;36.0
26641;DHT22;14269;47.358;0.724;2023-04-21T16:18:05;18.0;35.0
26641;DHT22;14269;47.358;0.724;2023-04-21T16:20:44;18.0;37.0
26641;DHT22;14269;47.358;0.724;2023-04-21T16:23:25;18.0;36.0
26641;DHT22;14269;47.358;0.724;2023-04-21T16:26:08;18.0;37.0
26641;DHT22;14269;47.358;0.724;2023-04-21T16:28:47;17.0;36.0
26641;DHT22;14269;47.358;0.724;2023-04-21T16:31:19;17.0;38.0
26641;DHT22;14269;47.358;0.724;2023-04-21T16:33:51;17.0;38.0
26641;DHT22;14269;47.358;0.724;2023-04-21T16:36:22;17.0;37.0
26641;DHT22;14269;47.358;0.724;2023-04-21T16:38:54;17.0;38.0
26641;DHT22;14269;47.358;0.724;2023-04-21T16:41:26;17.0;39.0
26641;DHT22;14269;47.358;0.724;2023-04-21T16:43:57;17.0;36.0
26641;DHT22;14269;47.358;0.724;2023-04-21T16:46:29;17.0;37.0
26641;DHT22;14269;47.358;0.724;2023-04-21T16:49:01;17.0;37.0